Strona główna
METAR-TAF:

METAR-TAF

Lotnisko :

Gove, Australia

Szerokość geograficzna: 12-16-12S, Długość geograficzna: 136-49-06E, wysokość: 62 m

Aktualna obserwacja pogody

Raport powstał 26 minut temu, godzina 04:00 UTC
Wiatr 9 kt od północny wschód
Temperatura 33°C
Wilgotność 53%
Ciśnienie 1008 hPa
Widzialność 10 km lub więcej
Mało chmury na wysokości 3000 ft

METAR: YPGV 110400Z 05009KT 9999 FEW030 33/22 Q1008

czas: 13:56 (04:26 UTC)

Prognoza

Raport powstał 3 godziny i 40 minut temu, godzina 00:46 UTC
Prognoza ważna od 11 godzina 02 UTC do 11 godzina 14 UTC
Wiatr 12 kt od wschodnio-północny wschód
Widzialność 10 km lub więcej
Rozproszone chmury na wysokości 2500 ft
Od 11 godzina 1200 UTC
Wiatr 3 kt z kierunków zmiennych
Widzialność: 8000 m
Mało chmury na wysokości 1200 ft
dym
Przejściowo
od 11 godzina 12 UTC do 11 godzina 14 UTC
Widzialność: 0500 m
Rozproszone chmury na wysokości 2000 ft
dym

TAF: YPGV 110046Z 1102/1114 06012KT 9999 SCT025 FM111200 VRB03KT 8000 FU FEW012 TEMPO 1112/1114 0500 FU SCT020

Obserwacja i prognoza pogody dla ponad 4000 lotnisk (raport METAR i TAF).

Dostępne stacje oznaczono żółtymi i czerwonymi punktami na mapie.

Najedź kursorem aby zobaczyć nazwę stacji.

Kliknij aby zobaczyć obserwacje i prognozy pogody.

Aby zmienić mapę: kliknij na zielony przycisk z czarnym krzyżykiem, aby powiększyć; na zielony przycisk z myślnikiem, aby pomniejszyć; na zielone strzałki, aby przejść do map sąsiednich.


METAR-TAF: